sensor_id;sensor_type;location;lat;lon;timestamp;pressure;altitude;pressure_sealevel;temperature;humidity
42859;BME280;28505;56.970;40.998;2022-07-10T00:02:43;99716.53;;;17.37;100.00
42859;BME280;28505;56.970;40.998;2022-07-10T00:08:05;99672.09;;;17.08;100.00
42859;BME280;28505;56.970;40.998;2022-07-10T00:13:28;99703.94;;;17.20;100.00
42859;BME280;28505;56.970;40.998;2022-07-10T00:18:50;99743.31;;;17.35;100.00
42859;BME280;28505;56.970;40.998;2022-07-10T00:24:12;99722.41;;;17.26;100.00
42859;BME280;28505;56.970;40.998;2022-07-10T00:29:34;99739.69;;;17.30;100.00
42859;BME280;28505;56.970;40.998;2022-07-10T00:34:56;99725.38;;;17.34;100.00
42859;BME280;28505;56.970;40.998;2022-07-10T00:40:19;99726.97;;;17.35;100.00
42859;BME280;28505;56.970;40.998;2022-07-10T00:45:41;99731.50;;;17.30;100.00
42859;BME280;28505;56.970;40.998;2022-07-10T00:51:04;99733.66;;;17.37;100.00
42859;BME280;28505;56.970;40.998;2022-07-10T00:56:28;99715.59;;;17.32;100.00
42859;BME280;28505;56.970;40.998;2022-07-10T01:01:50;99741.47;;;17.39;100.00
42859;BME280;28505;56.970;40.998;2022-07-10T01:07:12;99734.66;;;17.32;100.00
42859;BME280;28505;56.970;40.998;2022-07-10T01:12:40;99743.41;;;17.38;100.00
42859;BME280;28505;56.970;40.998;2022-07-10T01:18:02;99746.59;;;17.40;100.00
42859;BME280;28505;56.970;40.998;2022-07-10T01:23:25;99742.72;;;17.41;100.00
42859;BME280;28505;56.970;40.998;2022-07-10T01:28:49;99733.97;;;17.36;100.00
42859;BME280;28505;56.970;40.998;2022-07-10T01:34:10;99741.72;;;17.34;100.00
42859;BME280;28505;56.970;40.998;2022-07-10T01:39:33;99730.81;;;17.34;100.00
42859;BME280;28505;56.970;40.998;2022-07-10T01:44:55;99733.56;;;17.34;100.00
42859;BME280;28505;56.970;40.998;2022-07-10T01:50:24;99720.63;;;17.30;100.00
42859;BME280;28505;56.970;40.998;2022-07-10T01:55:47;99715.66;;;17.20;100.00
42859;BME280;28505;56.970;40.998;2022-07-10T02:01:10;99726.31;;;17.13;100.00
42859;BME280;28505;56.970;40.998;2022-07-10T02:06:33;99722.78;;;17.13;100.00
42859;BME280;28505;56.970;40.998;2022-07-10T02:11:55;99713.13;;;17.15;100.00
42859;BME280;28505;56.970;40.998;2022-07-10T02:17:17;99709.06;;;17.21;100.00
42859;BME280;28505;56.970;40.998;2022-07-10T02:22:39;99687.25;;;17.21;100.00
42859;BME280;28505;56.970;40.998;2022-07-10T02:28:01;99629.22;;;16.93;100.00
42859;BME280;28505;56.970;40.998;2022-07-10T02:33:27;99664.88;;;17.28;100.00
42859;BME280;28505;56.970;40.998;2022-07-10T02:38:50;99645.72;;;17.24;100.00
42859;BME280;28505;56.970;40.998;2022-07-10T02:44:12;99688.16;;;17.66;100.00
42859;BME280;28505;56.970;40.998;2022-07-10T02:49:34;99706.59;;;17.85;100.00
42859;BME280;28505;56.970;40.998;2022-07-10T02:54:57;99702.25;;;17.96;100.00
42859;BME280;28505;56.970;40.998;2022-07-10T03:00:20;99699.19;;;18.13;100.00
42859;BME280;28505;56.970;40.998;2022-07-10T03:05:42;99707.84;;;18.31;100.00
42859;BME280;28505;56.970;40.998;2022-07-10T03:11:04;99709.94;;;18.54;100.00
42859;BME280;28505;56.970;40.998;2022-07-10T03:16:36;99715.34;;;18.82;100.00
42859;BME280;28505;56.970;40.998;2022-07-10T03:22:04;99713.75;;;18.97;100.00
42859;BME280;28505;56.970;40.998;2022-07-10T03:27:26;99724.22;;;19.30;100.00
42859;BME280;28505;56.970;40.998;2022-07-10T03:32:48;99725.38;;;19.48;100.00
42859;BME280;28505;56.970;40.998;2022-07-10T03:38:10;99714.75;;;19.62;100.00
42859;BME280;28505;56.970;40.998;2022-07-10T03:43:32;99669.28;;;19.54;100.00
42859;BME280;28505;56.970;40.998;2022-07-10T03:48:54;99719.09;;;20.02;100.00
42859;BME280;28505;56.970;40.998;2022-07-10T03:54:16;99680.16;;;19.90;100.00
42859;BME280;28505;56.970;40.998;2022-07-10T03:59:41;99741.31;;;20.43;100.00
42859;BME280;28505;56.970;40.998;2022-07-10T04:05:08;99702.19;;;20.43;100.00
42859;BME280;28505;56.970;40.998;2022-07-10T04:10:31;99696.03;;;20.49;100.00
42859;BME280;28505;56.970;40.998;2022-07-10T04:15:53;99716.88;;;20.77;100.00
42859;BME280;28505;56.970;40.998;2022-07-10T04:21:15;99698.16;;;20.83;100.00
42859;BME280;28505;56.970;40.998;2022-07-10T04:26:37;99698.34;;;20.93;100.00
42859;BME280;28505;56.970;40.998;2022-07-10T04:32:00;99714.53;;;21.32;100.00
42859;BME280;28505;56.970;40.998;2022-07-10T04:37:22;99694.34;;;21.44;100.00
42859;BME280;28505;56.970;40.998;2022-07-10T04:42:44;99697.66;;;22.31;100.00
42859;BME280;28505;56.970;40.998;2022-07-10T04:48:06;99686.91;;;24.24;100.00
42859;BME280;28505;56.970;40.998;2022-07-10T04:53:29;99685.50;;;25.61;100.00
42859;BME280;28505;56.970;40.998;2022-07-10T04:58:54;99729.53;;;25.97;91.14
42859;BME280;28505;56.970;40.998;2022-07-10T05:04:16;99718.59;;;26.38;91.27
42859;BME280;28505;56.970;40.998;2022-07-10T05:09:45;99669.94;;;27.34;88.85
42859;BME280;28505;56.970;40.998;2022-07-10T05:15:18;99702.19;;;27.48;78.74
42859;BME280;28505;56.970;40.998;2022-07-10T05:20:40;99703.72;;;27.18;74.17
42859;BME280;28505;56.970;40.998;2022-07-10T05:26:05;99700.91;;;27.22;77.08
42859;BME280;28505;56.970;40.998;2022-07-10T05:31:30;99701.06;;;28.03;77.64
42859;BME280;28505;56.970;40.998;2022-07-10T05:36:53;99693.47;;;28.34;72.38
42859;BME280;28505;56.970;40.998;2022-07-10T05:42:15;99683.28;;;28.00;70.09
42859;BME280;28505;56.970;40.998;2022-07-10T05:47:37;99676.66;;;27.94;68.48
42859;BME280;28505;56.970;40.998;2022-07-10T05:52:59;99681.81;;;27.92;68.43
42859;BME280;28505;56.970;40.998;2022-07-10T05:58:22;99689.50;;;28.35;68.24
42859;BME280;28505;56.970;40.998;2022-07-10T06:03:44;99689.69;;;28.48;65.46
42859;BME280;28505;56.970;40.998;2022-07-10T06:09:07;99685.22;;;28.54;66.83
42859;BME280;28505;56.970;40.998;2022-07-10T06:14:29;99671.13;;;28.68;65.03
42859;BME280;28505;56.970;40.998;2022-07-10T06:19:52;99635.06;;;28.21;65.50
42859;BME280;28505;56.970;40.998;2022-07-10T06:25:14;99684.25;;;28.64;65.13
42859;BME280;28505;56.970;40.998;2022-07-10T06:30:37;99633.97;;;28.42;65.74
42859;BME280;28505;56.970;40.998;2022-07-10T06:35:59;99658.06;;;28.69;64.17
42859;BME280;28505;56.970;40.998;2022-07-10T06:41:21;99624.16;;;28.34;63.01
42859;BME280;28505;56.970;40.998;2022-07-10T06:46:45;99638.53;;;28.53;63.29
42859;BME280;28505;56.970;40.998;2022-07-10T06:52:27;99664.91;;;28.84;61.27
42859;BME280;28505;56.970;40.998;2022-07-10T06:57:53;99675.63;;;28.82;61.00
42859;BME280;28505;56.970;40.998;2022-07-10T07:03:16;99651.03;;;28.61;59.04
42859;BME280;28505;56.970;40.998;2022-07-10T07:08:38;99646.06;;;28.52;59.30
42859;BME280;28505;56.970;40.998;2022-07-10T07:14:07;99625.88;;;28.52;58.51
42859;BME280;28505;56.970;40.998;2022-07-10T07:19:30;99678.28;;;28.89;59.50
42859;BME280;28505;56.970;40.998;2022-07-10T07:25:11;99680.50;;;28.98;60.11
42859;BME280;28505;56.970;40.998;2022-07-10T07:30:51;99657.28;;;28.88;59.09
42859;BME280;28505;56.970;40.998;2022-07-10T07:36:13;99676.47;;;29.03;58.01
42859;BME280;28505;56.970;40.998;2022-07-10T07:41:36;99672.84;;;29.06;58.44
42859;BME280;28505;56.970;40.998;2022-07-10T07:46:58;99670.38;;;29.11;55.36
42859;BME280;28505;56.970;40.998;2022-07-10T07:52:20;99674.22;;;29.17;57.11
42859;BME280;28505;56.970;40.998;2022-07-10T07:57:43;99665.66;;;29.28;57.42
42859;BME280;28505;56.970;40.998;2022-07-10T08:03:05;99665.19;;;29.33;58.02
42859;BME280;28505;56.970;40.998;2022-07-10T08:08:28;99644.56;;;29.51;58.40
42859;BME280;28505;56.970;40.998;2022-07-10T08:13:51;99666.25;;;29.56;56.42
42859;BME280;28505;56.970;40.998;2022-07-10T08:19:13;99659.69;;;29.50;57.22
42859;BME280;28505;56.970;40.998;2022-07-10T08:24:35;99670.63;;;29.57;57.75
42859;BME280;28505;56.970;40.998;2022-07-10T08:29:57;99654.44;;;29.52;56.47
42859;BME280;28505;56.970;40.998;2022-07-10T08:35:20;99645.97;;;29.59;57.79
42859;BME280;28505;56.970;40.998;2022-07-10T08:40:42;99636.72;;;29.66;57.47
42859;BME280;28505;56.970;40.998;2022-07-10T08:46:07;99628.97;;;29.57;56.25
42859;BME280;28505;56.970;40.998;2022-07-10T08:51:41;99631.09;;;29.49;55.77
42859;BME280;28505;56.970;40.998;2022-07-10T08:57:08;99657.13;;;29.75;55.62
42859;BME280;28505;56.970;40.998;2022-07-10T09:02:31;99656.47;;;29.88;54.65
42859;BME280;28505;56.970;40.998;2022-07-10T09:07:54;99662.03;;;29.88;53.14
42859;BME280;28505;56.970;40.998;2022-07-10T09:13:16;99660.28;;;29.57;52.66
42859;BME280;28505;56.970;40.998;2022-07-10T09:18:39;99634.69;;;29.30;52.52
42859;BME280;28505;56.970;40.998;2022-07-10T09:24:08;99623.50;;;29.13;53.72
42859;BME280;28505;56.970;40.998;2022-07-10T09:29:32;99632.72;;;29.30;54.70
42859;BME280;28505;56.970;40.998;2022-07-10T09:34:58;99627.22;;;29.47;53.64
42859;BME280;28505;56.970;40.998;2022-07-10T09:40:46;99628.41;;;29.46;51.08
42859;BME280;28505;56.970;40.998;2022-07-10T09:46:08;99625.25;;;29.27;52.78
42859;BME280;28505;56.970;40.998;2022-07-10T09:51:39;99653.47;;;29.42;52.00
42859;BME280;28505;56.970;40.998;2022-07-10T09:57:12;99637.88;;;29.48;52.50
42859;BME280;28505;56.970;40.998;2022-07-10T10:02:35;99614.50;;;29.46;53.05
42859;BME280;28505;56.970;40.998;2022-07-10T10:08:09;99671.94;;;30.05;52.64
42859;BME280;28505;56.970;40.998;2022-07-10T10:13:34;99614.78;;;29.71;51.04
42859;BME280;28505;56.970;40.998;2022-07-10T10:19:11;99653.31;;;29.85;51.67
42859;BME280;28505;56.970;40.998;2022-07-10T10:24:54;99631.34;;;29.75;50.18
42859;BME280;28505;56.970;40.998;2022-07-10T10:30:18;99650.38;;;29.76;50.29
42859;BME280;28505;56.970;40.998;2022-07-10T10:35:46;99660.75;;;30.08;50.57
42859;BME280;28505;56.970;40.998;2022-07-10T10:41:24;99661.00;;;30.14;51.07
42859;BME280;28505;56.970;40.998;2022-07-10T10:52:16;99621.88;;;29.72;49.82
42859;BME280;28505;56.970;40.998;2022-07-10T10:57:41;99667.84;;;29.77;51.42
42859;BME280;28505;56.970;40.998;2022-07-10T11:03:18;99645.44;;;29.48;52.04
42859;BME280;28505;56.970;40.998;2022-07-10T11:08:42;99641.88;;;29.83;52.24
42859;BME280;28505;56.970;40.998;2022-07-10T11:14:10;99608.53;;;29.83;52.28
42859;BME280;28505;56.970;40.998;2022-07-10T11:19:33;99662.16;;;30.33;49.60
42859;BME280;28505;56.970;40.998;2022-07-10T11:30:23;99647.78;;;30.18;49.13
42859;BME280;28505;56.970;40.998;2022-07-10T11:35:47;99614.88;;;29.84;50.62
42859;BME280;28505;56.970;40.998;2022-07-10T11:41:19;99643.13;;;29.99;49.64
42859;BME280;28505;56.970;40.998;2022-07-10T11:46:44;99626.19;;;30.09;49.51
42859;BME280;28505;56.970;40.998;2022-07-10T11:52:06;99645.41;;;30.20;49.86
42859;BME280;28505;56.970;40.998;2022-07-10T11:57:28;99643.47;;;30.33;49.73
42859;BME280;28505;56.970;40.998;2022-07-10T12:02:55;99643.13;;;30.15;48.70
42859;BME280;28505;56.970;40.998;2022-07-10T12:08:17;99637.81;;;30.04;49.47
42859;BME280;28505;56.970;40.998;2022-07-10T12:13:42;99613.31;;;29.99;49.32
42859;BME280;28505;56.970;40.998;2022-07-10T12:19:06;99586.03;;;29.94;50.02
42859;BME280;28505;56.970;40.998;2022-07-10T12:24:29;99591.72;;;30.23;48.14
42859;BME280;28505;56.970;40.998;2022-07-10T12:30:03;99608.03;;;30.21;49.25
42859;BME280;28505;56.970;40.998;2022-07-10T12:35:25;99565.63;;;30.01;49.90
42859;BME280;28505;56.970;40.998;2022-07-10T12:41:04;99558.44;;;30.03;50.51
42859;BME280;28505;56.970;40.998;2022-07-10T12:46:27;99565.44;;;29.75;51.46
42859;BME280;28505;56.970;40.998;2022-07-10T12:51:50;99576.66;;;29.35;52.54
42859;BME280;28505;56.970;40.998;2022-07-10T12:57:32;99589.41;;;29.33;53.11
42859;BME280;28505;56.970;40.998;2022-07-10T13:03:18;99619.91;;;29.53;52.58
42859;BME280;28505;56.970;40.998;2022-07-10T13:08:45;99601.94;;;29.41;52.46
42859;BME280;28505;56.970;40.998;2022-07-10T13:14:08;99574.22;;;29.21;51.58
42859;BME280;28505;56.970;40.998;2022-07-10T13:19:34;99627.75;;;29.58;51.96
42859;BME280;28505;56.970;40.998;2022-07-10T13:25:39;99599.97;;;29.58;51.46
42859;BME280;28505;56.970;40.998;2022-07-10T13:31:01;99617.03;;;29.76;51.73
42859;BME280;28505;56.970;40.998;2022-07-10T13:36:24;99619.13;;;29.89;50.26
42859;BME280;28505;56.970;40.998;2022-07-10T13:41:47;99613.91;;;29.74;48.78
42859;BME280;28505;56.970;40.998;2022-07-10T13:47:09;99590.94;;;29.54;48.58
42859;BME280;28505;56.970;40.998;2022-07-10T13:52:31;99602.03;;;29.54;50.60
42859;BME280;28505;56.970;40.998;2022-07-10T13:57:54;99607.28;;;29.32;50.88
42859;BME280;28505;56.970;40.998;2022-07-10T14:03:20;99604.75;;;29.01;51.25
42859;BME280;28505;56.970;40.998;2022-07-10T14:08:42;99601.59;;;28.79;52.16
42859;BME280;28505;56.970;40.998;2022-07-10T14:14:04;99600.22;;;28.67;52.86
42859;BME280;28505;56.970;40.998;2022-07-10T14:19:27;99543.72;;;28.14;53.08
42859;BME280;28505;56.970;40.998;2022-07-10T14:24:49;99532.47;;;28.01;53.93
42859;BME280;28505;56.970;40.998;2022-07-10T14:30:11;99559.69;;;28.07;54.69
42859;BME280;28505;56.970;40.998;2022-07-10T14:35:37;99558.19;;;27.75;55.78
42859;BME280;28505;56.970;40.998;2022-07-10T14:41:01;99580.59;;;27.61;56.78
42859;BME280;28505;56.970;40.998;2022-07-10T14:46:26;99548.59;;;27.29;57.64
42859;BME280;28505;56.970;40.998;2022-07-10T14:51:49;99559.78;;;27.49;58.56
42859;BME280;28505;56.970;40.998;2022-07-10T14:57:12;99534.47;;;27.50;59.50
42859;BME280;28505;56.970;40.998;2022-07-10T15:02:35;99521.59;;;27.64;59.72
42859;BME280;28505;56.970;40.998;2022-07-10T15:08:00;99529.28;;;27.76;59.76
42859;BME280;28505;56.970;40.998;2022-07-10T15:13:24;99540.66;;;27.85;59.49
42859;BME280;28505;56.970;40.998;2022-07-10T15:18:46;99574.53;;;27.96;59.85
42859;BME280;28505;56.970;40.998;2022-07-10T15:24:08;99555.91;;;27.70;60.94
42859;BME280;28505;56.970;40.998;2022-07-10T15:29:31;99573.22;;;27.77;61.01
42859;BME280;28505;56.970;40.998;2022-07-10T15:34:53;99579.09;;;27.83;60.77
42859;BME280;28505;56.970;40.998;2022-07-10T15:40:16;99577.50;;;27.82;59.97
42859;BME280;28505;56.970;40.998;2022-07-10T15:45:38;99591.28;;;27.86;59.86
42859;BME280;28505;56.970;40.998;2022-07-10T15:51:03;99596.88;;;27.82;58.78
42859;BME280;28505;56.970;40.998;2022-07-10T15:56:26;99609.63;;;27.80;59.00
42859;BME280;28505;56.970;40.998;2022-07-10T16:01:52;99616.75;;;27.77;58.28
42859;BME280;28505;56.970;40.998;2022-07-10T16:07:14;99624.28;;;27.73;58.60
42859;BME280;28505;56.970;40.998;2022-07-10T16:12:36;99627.91;;;27.70;58.50
42859;BME280;28505;56.970;40.998;2022-07-10T16:17:59;99630.31;;;27.68;58.77
42859;BME280;28505;56.970;40.998;2022-07-10T16:23:21;99634.34;;;27.63;59.24
42859;BME280;28505;56.970;40.998;2022-07-10T16:28:45;99640.72;;;27.60;59.36
42859;BME280;28505;56.970;40.998;2022-07-10T16:34:07;99632.25;;;27.44;60.00
42859;BME280;28505;56.970;40.998;2022-07-10T16:39:30;99639.47;;;27.34;60.55
42859;BME280;28505;56.970;40.998;2022-07-10T16:44:52;99634.16;;;27.16;61.04
42859;BME280;28505;56.970;40.998;2022-07-10T16:50:14;99654.00;;;27.04;61.52
42859;BME280;28505;56.970;40.998;2022-07-10T16:55:37;99664.81;;;26.91;61.83
42859;BME280;28505;56.970;40.998;2022-07-10T17:00:59;99679.97;;;26.79;63.00
42859;BME280;28505;56.970;40.998;2022-07-10T17:06:24;99692.25;;;26.75;63.50
42859;BME280;28505;56.970;40.998;2022-07-10T17:11:46;99703.81;;;26.66;63.90
42859;BME280;28505;56.970;40.998;2022-07-10T17:17:08;99704.28;;;26.54;64.57
42859;BME280;28505;56.970;40.998;2022-07-10T17:22:30;99719.00;;;26.40;64.70
42859;BME280;28505;56.970;40.998;2022-07-10T17:27:53;99720.28;;;26.25;65.63
42859;BME280;28505;56.970;40.998;2022-07-10T17:33:15;99723.56;;;26.05;66.43
42859;BME280;28505;56.970;40.998;2022-07-10T17:38:38;99715.78;;;25.86;66.95
42859;BME280;28505;56.970;40.998;2022-07-10T17:44:00;99721.34;;;25.72;68.10
42859;BME280;28505;56.970;40.998;2022-07-10T17:49:22;99720.22;;;25.58;68.53
42859;BME280;28505;56.970;40.998;2022-07-10T17:54:45;99712.81;;;25.41;69.59
42859;BME280;28505;56.970;40.998;2022-07-10T18:00:08;99707.34;;;25.19;70.40
42859;BME280;28505;56.970;40.998;2022-07-10T18:05:34;99722.69;;;25.20;70.93
42859;BME280;28505;56.970;40.998;2022-07-10T18:10:57;99723.13;;;25.08;71.70
42859;BME280;28505;56.970;40.998;2022-07-10T18:16:19;99693.97;;;24.93;72.07
42859;BME280;28505;56.970;40.998;2022-07-10T18:21:41;99686.91;;;24.81;72.70
42859;BME280;28505;56.970;40.998;2022-07-10T18:27:04;99692.44;;;24.67;73.70
42859;BME280;28505;56.970;40.998;2022-07-10T18:32:27;99693.22;;;24.53;74.05
42859;BME280;28505;56.970;40.998;2022-07-10T18:38:08;99728.28;;;24.63;75.04
42859;BME280;28505;56.970;40.998;2022-07-10T18:43:32;99740.88;;;24.50;75.75
42859;BME280;28505;56.970;40.998;2022-07-10T18:48:54;99710.50;;;24.25;76.09
42859;BME280;28505;56.970;40.998;2022-07-10T18:54:16;99696.72;;;24.11;77.17
42859;BME280;28505;56.970;40.998;2022-07-10T18:59:39;99731.75;;;24.39;76.81
42859;BME280;28505;56.970;40.998;2022-07-10T19:05:05;99701.44;;;24.24;76.41
42859;BME280;28505;56.970;40.998;2022-07-10T19:10:28;99700.25;;;24.33;75.59
42859;BME280;28505;56.970;40.998;2022-07-10T19:15:51;99749.13;;;24.68;74.55
42859;BME280;28505;56.970;40.998;2022-07-10T19:21:15;99776.69;;;24.79;73.09
42859;BME280;28505;56.970;40.998;2022-07-10T19:26:38;99799.56;;;24.79;72.42
42859;BME280;28505;56.970;40.998;2022-07-10T19:32:04;99847.59;;;24.78;72.50
42859;BME280;28505;56.970;40.998;2022-07-10T19:37:27;99843.63;;;24.61;72.86
42859;BME280;28505;56.970;40.998;2022-07-10T19:42:51;99869.63;;;24.67;72.12
42859;BME280;28505;56.970;40.998;2022-07-10T19:48:14;99866.47;;;24.62;71.24
42859;BME280;28505;56.970;40.998;2022-07-10T19:53:36;99888.13;;;24.56;69.58
42859;BME280;28505;56.970;40.998;2022-07-10T19:59:01;99893.56;;;24.42;68.80
42859;BME280;28505;56.970;40.998;2022-07-10T20:04:24;99886.38;;;24.23;67.91
42859;BME280;28505;56.970;40.998;2022-07-10T20:09:46;99895.34;;;24.02;67.60
42859;BME280;28505;56.970;40.998;2022-07-10T20:15:09;99884.19;;;23.80;67.41
42859;BME280;28505;56.970;40.998;2022-07-10T20:20:31;99811.50;;;23.26;67.61
42859;BME280;28505;56.970;40.998;2022-07-10T20:25:53;99807.81;;;23.04;67.72
42859;BME280;28505;56.970;40.998;2022-07-10T20:31:16;99852.19;;;23.03;68.27
42859;BME280;28505;56.970;40.998;2022-07-10T20:36:40;99841.31;;;22.76;68.53
42859;BME280;28505;56.970;40.998;2022-07-10T20:42:23;99806.00;;;22.37;68.61
42859;BME280;28505;56.970;40.998;2022-07-10T20:47:51;99825.19;;;22.34;69.22
42859;BME280;28505;56.970;40.998;2022-07-10T20:53:14;99784.31;;;21.95;70.12
42859;BME280;28505;56.970;40.998;2022-07-10T20:58:40;99828.59;;;21.93;70.86
42859;BME280;28505;56.970;40.998;2022-07-10T21:04:03;99849.16;;;21.77;71.14
42859;BME280;28505;56.970;40.998;2022-07-10T21:09:26;99817.38;;;21.45;71.26
42859;BME280;28505;56.970;40.998;2022-07-10T21:14:51;99847.97;;;21.47;71.56
42859;BME280;28505;56.970;40.998;2022-07-10T21:26:14;99856.88;;;21.41;73.58
42859;BME280;28505;56.970;40.998;2022-07-10T21:31:37;99841.41;;;21.29;73.72
42859;BME280;28505;56.970;40.998;2022-07-10T21:37:00;99849.31;;;21.34;74.28
42859;BME280;28505;56.970;40.998;2022-07-10T21:42:22;99806.88;;;21.01;75.01
42859;BME280;28505;56.970;40.998;2022-07-10T21:47:45;99799.72;;;20.93;75.67
42859;BME280;28505;56.970;40.998;2022-07-10T21:53:07;99831.56;;;21.01;75.60
42859;BME280;28505;56.970;40.998;2022-07-10T21:58:29;99825.06;;;20.87;76.14
42859;BME280;28505;56.970;40.998;2022-07-10T22:03:51;99829.72;;;20.86;76.92
42859;BME280;28505;56.970;40.998;2022-07-10T22:09:14;99788.50;;;20.56;77.93
42859;BME280;28505;56.970;40.998;2022-07-10T22:14:37;99816.16;;;20.70;78.25
42859;BME280;28505;56.970;40.998;2022-07-10T22:19:59;99833.66;;;20.66;78.84
42859;BME280;28505;56.970;40.998;2022-07-10T22:25:22;99846.47;;;20.58;79.49
42859;BME280;28505;56.970;40.998;2022-07-10T22:30:46;99842.78;;;20.50;79.98
42859;BME280;28505;56.970;40.998;2022-07-10T22:36:27;99852.22;;;20.33;81.05
42859;BME280;28505;56.970;40.998;2022-07-10T22:41:50;99855.59;;;20.27;81.84
42859;BME280;28505;56.970;40.998;2022-07-10T22:47:12;99863.81;;;20.27;82.36
42859;BME280;28505;56.970;40.998;2022-07-10T22:52:34;99872.19;;;20.15;83.01
42859;BME280;28505;56.970;40.998;2022-07-10T22:57:57;99872.84;;;20.08;83.33
42859;BME280;28505;56.970;40.998;2022-07-10T23:03:19;99877.06;;;20.05;83.53
42859;BME280;28505;56.970;40.998;2022-07-10T23:08:42;99882.81;;;20.00;84.07
42859;BME280;28505;56.970;40.998;2022-07-10T23:14:05;99883.03;;;19.92;84.59
42859;BME280;28505;56.970;40.998;2022-07-10T23:19:27;99867.72;;;19.71;85.59
42859;BME280;28505;56.970;40.998;2022-07-10T23:24:50;99864.03;;;19.63;87.67
42859;BME280;28505;56.970;40.998;2022-07-10T23:30:24;99867.72;;;19.55;87.74
42859;BME280;28505;56.970;40.998;2022-07-10T23:35:48;99863.50;;;19.42;88.81
42859;BME280;28505;56.970;40.998;2022-07-10T23:41:11;99858.69;;;19.20;89.68
42859;BME280;28505;56.970;40.998;2022-07-10T23:46:33;99885.81;;;19.28;90.33
42859;BME280;28505;56.970;40.998;2022-07-10T23:51:55;99882.13;;;19.21;91.30
42859;BME280;28505;56.970;40.998;2022-07-10T23:57:21;99878.78;;;19.11;93.04
